Billings Logan International Airport
KBIL : now visible

Airfield :











YOU CAN JOIN US ON...

 
LOGIN :

Register | Disclaimer

   EN    FR    IT 

 









Legend :    VFR   Marginal VFR   IFR   Intensive IFR   Very Intensive IFR
Visi :
Ceiling :
>= 8 km
>= 3000ft
5 to 8 km
1000 to 3000 ft
1500m to 5 km
500 to 1000 ft
800 to 1500m
200 to 500 ft
< 800m
< 200 ft
Symbols :   Thunderstorms  Fog  Heavy snow  Heavy precipitations  Wind > 20 kt






- Airport Elevation : 3652 ft
- IATA code : BIL


KBIL - Billings Logan International

CURRENT METAR :
  • 202153Z 36013KT 10SM SCT047 BKN060 BKN095 19/06 A3014 RMK AO2 SLP188 VIRGA SHRA DSNT NW-E T01940061 $

EXPIRED METARs :
  • 202053Z 01004KT 10SM FEW039 SCT065TCU BKN080 19/07 A3013 RMK AO2 SLP183 VIRGA SHRA DSNT ALQDS TCU ALQDS 60001 T01940072 51008 $
  • 201953Z 29004KT 10SM FEW030 BKN075 BKN090 17/08 A3013 RMK AO2 RAE17 SLP185 SHRA DSNT S-W P0000 T01720078 $

TAF KBIL
Valid from the 20 at 19:00 until the 21 at 18:00 UTC


201900Z 2019/2118 36007KT P6SM VCSH FEW020 BKN080
FM202200 32012KT P6SM VCSH OVC060
FM210200 27008KT P6SM OVC060
FM210800 23007KT P6SM SKC
KZLC FIR / North America



MET'MAP, your aeronautical weather chart ! - Copyright ORBIFLY December 2007 - Disclaimer

ORBIFLY MET'MAP TEAM :

Programming & Development : Alexandra Zaïnal
Concept & original design : Baudouin d'Aumeries
Assistance for programming : Marc-Olivier Méhu
Technical & hardware support : Manuel Goepfert

Contact : metmap@orbifly.com




SOURCES & CREDITS :

   NOAA       Earth
Advisory